Castorland, New York
Current Conditions -  °F | °C
As of 1:58 PM on Friday 24 Oct 2014 (Local Time) from KGTB Reporting Station
Haze Haze  
Wind Chill: 58°   Ceiling: 5500
Heat Index: 58°   Visibility: 6mi
Dew Point: 39°   Wind: 5mph
Humidity: 49%   Direction: 270°W
Pressure: 29.87"   Gusts: NA
Location:  43.89°N, 75.51°W
Report Text: KGTB 241758Z AUTO 27004KT 6SM HZ OVC055 15/04 A2987 RMK AO2 SLP117 T01460039 57016
Loading
Personal Weather Stations






























Interactive Weather Map
Tropical Storm Tracking
New forecast layout! Learn more

10-Day Weather Forecast

Advertisements
Track Severe Weather on mobile